Time;durP1;ratioP1;P1;durP2;ratioP2;P2;SDS_P1;SDS_P2;PMS_P1;PMS_P2;Temp;Humidity;BMP_temperature;BMP_pressure;BME280_temperature;BME280_humidity;BME280_pressure;Samples;Min_cycle;Max_cycle;Signal;HPM_P1;HPM_P2
2021/07/05 00:01:20;;;;;;;14.70;12.00;;;18.10;99.90;;;;;;4999310;28;20449;-76
2021/07/05 00:03:47;;;;;;;16.37;11.90;;;18.20;99.90;;;;;;4993751;28;20471;-76
2021/07/05 00:06:14;;;;;;;14.23;12.87;;;18.20;99.90;;;;;;4994698;28;20448;-74
2021/07/05 00:08:41;;;;;;;15.70;14.00;;;18.30;99.90;;;;;;4993689;28;20444;-76
2021/07/05 00:11:10;;;;;;;19.47;16.93;;;18.30;99.90;;;;;;4995023;28;20780;-76
2021/07/05 00:13:37;;;;;;;15.87;14.30;;;18.30;99.90;;;;;;5001703;28;20464;-77
2021/07/05 00:16:05;;;;;;;20.10;13.50;;;18.30;99.90;;;;;;4995053;28;20481;-76
2021/07/05 00:18:32;;;;;;;15.57;13.60;;;18.30;99.90;;;;;;4994545;28;20555;-75
2021/07/05 00:20:59;;;;;;;15.00;12.00;;;18.30;99.90;;;;;;5003022;28;20456;-73
2021/07/05 00:23:27;;;;;;;18.73;14.30;;;18.30;99.90;;;;;;4998814;28;20445;-74
2021/07/05 00:25:55;;;;;;;17.90;14.93;;;18.30;99.90;;;;;;4991675;28;20452;-75
2021/07/05 00:28:23;;;;;;;18.50;16.10;;;18.30;99.90;;;;;;4994622;28;20441;-75
2021/07/05 00:30:50;;;;;;;16.13;13.67;;;18.30;99.90;;;;;;4992606;28;20445;-76
2021/07/05 00:33:17;;;;;;;17.67;13.37;;;18.30;99.90;;;;;;4993519;28;20549;-74
2021/07/05 00:35:44;;;;;;;17.70;14.87;;;18.30;99.90;;;;;;4991288;28;20472;-75
2021/07/05 00:38:12;;;;;;;21.03;16.07;;;18.40;99.90;;;;;;5004229;28;20804;-76
2021/07/05 00:40:39;;;;;;;18.97;15.40;;;18.30;99.90;;;;;;4999235;28;20453;-77
2021/07/05 00:43:06;;;;;;;23.00;16.67;;;18.30;99.90;;;;;;4994024;28;20444;-76
2021/07/05 00:45:35;;;;;;;21.80;16.23;;;18.20;99.90;;;;;;5005233;28;20479;-74
2021/07/05 00:48:02;;;;;;;19.47;17.47;;;18.20;99.90;;;;;;5001831;28;20460;-76
2021/07/05 00:50:30;;;;;;;19.17;17.27;;;18.20;99.90;;;;;;5008186;28;20443;-77
2021/07/05 00:53:00;;;;;;;20.50;15.47;;;18.20;99.90;;;;;;4997331;28;20491;-77
2021/07/05 00:55:28;;;;;;;21.17;18.50;;;18.20;99.90;;;;;;4994559;28;20488;-77
2021/07/05 00:57:55;;;;;;;23.60;19.13;;;18.20;99.90;;;;;;4995996;28;20562;-77
2021/07/05 01:00:24;;;;;;;22.53;18.40;;;18.20;99.90;;;;;;4992351;28;20492;-77
2021/07/05 01:02:53;;;;;;;28.13;20.23;;;18.20;99.90;;;;;;4998180;28;20452;-79
2021/07/05 01:05:22;;;;;;;25.20;19.83;;;18.10;99.90;;;;;;4997309;28;20539;-75
2021/07/05 01:07:49;;;;;;;24.43;21.77;;;18.00;99.90;;;;;;4995160;28;20459;-75
2021/07/05 01:10:19;;;;;;;23.33;19.90;;;18.00;99.90;;;;;;4993805;28;20452;-76
2021/07/05 01:12:48;;;;;;;23.47;20.10;;;17.90;99.90;;;;;;4994596;28;20443;-74
2021/07/05 01:15:17;;;;;;;24.33;21.10;;;17.90;99.90;;;;;;4993208;28;20476;-74
2021/07/05 01:17:45;;;;;;;22.90;19.90;;;17.90;99.90;;;;;;4999659;28;20820;-75
2021/07/05 01:20:18;;;;;;;21.17;18.95;;;17.80;99.90;;;;;;5003661;28;20488;-76
2021/07/05 01:22:47;;;;;;;24.23;19.53;;;17.90;99.90;;;;;;5000291;28;20291;-76
2021/07/05 01:25:17;;;;;;;29.30;22.93;;;17.80;99.90;;;;;;4997373;28;20471;-75
2021/07/05 01:27:45;;;;;;;29.87;22.37;;;17.70;99.90;;;;;;4993668;28;20913;-76
2021/07/05 01:30:16;;;;;;;29.63;21.70;;;17.80;99.90;;;;;;5009023;28;20444;-78
2021/07/05 01:32:44;;;;;;;24.53;20.43;;;17.80;99.90;;;;;;4994043;28;20452;-75
2021/07/05 01:35:12;;;;;;;27.27;21.80;;;17.80;99.90;;;;;;5009675;28;20562;-73
2021/07/05 01:37:39;;;;;;;28.70;20.27;;;17.80;99.90;;;;;;4996513;28;20539;-75
2021/07/05 01:40:13;;;;;;;30.23;23.40;;;17.80;99.90;;;;;;4993288;28;20570;-77
2021/07/05 01:42:40;;;;;;;28.23;20.93;;;17.80;99.90;;;;;;4996336;28;20862;-77
2021/07/05 01:45:09;;;;;;;22.10;20.00;;;17.80;99.90;;;;;;4992479;28;20970;-76
2021/07/05 01:47:37;;;;;;;26.50;21.83;;;17.80;99.90;;;;;;4990889;28;20221;-74
2021/07/05 01:50:05;;;;;;;25.77;20.80;;;17.80;99.90;;;;;;5002919;28;20846;-75
2021/07/05 01:52:32;;;;;;;22.97;20.53;;;17.70;99.90;;;;;;4998371;28;20455;-77
2021/07/05 01:55:00;;;;;;;26.40;22.70;;;17.70;99.90;;;;;;4988685;28;20518;-74
2021/07/05 01:57:33;;;;;;;25.23;17.57;;;17.70;99.90;;;;;;4984334;28;20447;-76
2021/07/05 02:00:02;;;;;;;23.67;19.40;;;17.80;99.90;;;;;;5009711;28;20471;-75
2021/07/05 02:02:29;;;;;;;28.60;21.53;;;17.80;99.90;;;;;;4997594;28;20473;-75
2021/07/05 02:04:56;;;;;;;21.37;19.17;;;17.80;99.90;;;;;;4999059;28;20475;-77
2021/07/05 02:07:23;;;;;;;24.27;20.70;;;17.80;99.90;;;;;;4988829;28;20467;-75
2021/07/05 02:09:51;;;;;;;27.13;20.53;;;17.80;99.90;;;;;;4992256;28;20467;-79
2021/07/05 02:12:18;;;;;;;24.80;19.40;;;17.80;99.90;;;;;;5001791;28;20958;-76
2021/07/05 02:14:47;;;;;;;22.40;17.77;;;17.70;99.90;;;;;;5007379;28;20474;-73
2021/07/05 02:17:14;;;;;;;20.30;16.63;;;17.70;99.90;;;;;;4995801;28;20445;-76
2021/07/05 02:19:41;;;;;;;18.43;16.63;;;17.70;99.90;;;;;;4993494;28;20506;-79
2021/07/05 02:22:09;;;;;;;20.40;18.20;;;17.70;99.90;;;;;;4988385;28;20452;-77
2021/07/05 02:24:36;;;;;;;20.93;18.47;;;17.70;99.90;;;;;;4991808;28;20486;-76
2021/07/05 02:27:04;;;;;;;17.67;15.57;;;17.60;99.90;;;;;;5002360;28;20458;-76
2021/07/05 02:29:32;;;;;;;19.00;16.47;;;17.60;99.90;;;;;;4993158;28;20440;-77
2021/07/05 02:32:00;;;;;;;22.13;19.63;;;17.60;99.90;;;;;;5001294;28;20451;-76
2021/07/05 02:34:27;;;;;;;21.93;17.80;;;17.60;99.90;;;;;;4995975;28;20510;-77
2021/07/05 02:36:55;;;;;;;19.97;17.90;;;17.60;99.90;;;;;;5003390;28;20794;-74
2021/07/05 02:39:22;;;;;;;25.40;19.43;;;17.60;99.90;;;;;;4998598;28;20475;-77
2021/07/05 02:41:49;;;;;;;22.67;16.57;;;17.60;99.90;;;;;;4993273;28;20449;-76
2021/07/05 02:44:16;;;;;;;18.60;15.50;;;17.60;99.90;;;;;;5005090;28;20471;-77
2021/07/05 02:46:43;;;;;;;19.13;15.73;;;17.60;99.90;;;;;;4992834;28;20516;-73
2021/07/05 02:49:12;;;;;;;22.73;18.00;;;17.60;99.90;;;;;;4993471;28;20786;-77
2021/07/05 02:51:39;;;;;;;23.77;18.40;;;17.60;99.90;;;;;;4993545;28;20449;-74
2021/07/05 02:54:06;;;;;;;20.93;17.23;;;17.60;99.90;;;;;;4999758;28;20977;-77
2021/07/05 02:56:34;;;;;;;22.47;18.00;;;17.60;99.90;;;;;;4996612;28;20463;-75
2021/07/05 02:59:01;;;;;;;23.33;20.03;;;17.50;99.90;;;;;;5003470;28;20456;-78
2021/07/05 03:01:28;;;;;;;21.43;19.13;;;17.50;99.90;;;;;;4996199;28;20566;-78
2021/07/05 03:03:55;;;;;;;22.17;18.70;;;17.50;99.90;;;;;;5001829;28;20884;-77
2021/07/05 03:06:24;;;;;;;24.73;18.73;;;17.50;99.90;;;;;;5007430;28;20833;-78
2021/07/05 03:08:51;;;;;;;22.85;19.10;;;17.40;99.90;;;;;;5007641;28;20461;-77
2021/07/05 03:11:18;;;;;;;20.85;18.52;;;17.40;99.90;;;;;;4995572;28;20216;-76
2021/07/05 03:13:46;;;;;;;21.40;18.23;;;17.40;99.90;;;;;;4995851;28;20231;-78
2021/07/05 03:16:13;;;;;;;22.00;17.75;;;17.30;99.90;;;;;;5001721;28;20249;-76
2021/07/05 03:18:41;;;;;;;27.13;18.58;;;17.30;99.90;;;;;;4995610;28;20647;-77
2021/07/05 03:21:08;;;;;;;19.20;17.17;;;17.30;99.90;;;;;;4996606;28;20228;-74
2021/07/05 03:23:37;;;;;;;19.30;17.40;;;17.30;99.90;;;;;;4995971;28;20471;-76
2021/07/05 03:26:04;;;;;;;19.95;17.17;;;17.40;99.90;;;;;;5003740;28;20207;-73
2021/07/05 03:28:31;;;;;;;22.10;19.33;;;17.40;99.90;;;;;;4999410;28;20208;-78
2021/07/05 03:30:58;;;;;;;20.60;18.40;;;17.40;99.90;;;;;;4995988;28;20460;-77
2021/07/05 03:33:25;;;;;;;24.27;18.20;;;17.40;99.90;;;;;;5001629;28;20448;-77
2021/07/05 03:35:53;;;;;;;24.23;17.48;;;17.40;99.90;;;;;;4993783;28;20462;-75
2021/07/05 03:38:22;;;;;;;20.30;17.53;;;17.40;99.90;;;;;;4996038;28;20559;-78
2021/07/05 03:40:51;;;;;;;23.30;17.57;;;17.50;99.90;;;;;;4995577;28;20491;-76
2021/07/05 03:43:19;;;;;;;22.57;19.90;;;17.50;99.90;;;;;;4995719;28;20473;-78
2021/07/05 03:45:46;;;;;;;20.97;18.70;;;17.50;99.90;;;;;;4994577;28;20526;-78
2021/07/05 03:48:13;;;;;;;19.23;17.30;;;17.50;99.90;;;;;;5006326;28;20828;-79
2021/07/05 03:50:41;;;;;;;23.83;19.10;;;17.50;99.90;;;;;;4999968;28;20444;-76
2021/07/05 03:53:09;;;;;;;28.63;18.87;;;17.50;99.90;;;;;;4996654;28;20464;-78
2021/07/05 03:55:38;;;;;;;22.05;19.52;;;17.50;99.90;;;;;;4988344;28;20469;-79
2021/07/05 03:58:08;;;;;;;26.33;20.87;;;17.50;99.90;;;;;;5000071;28;20214;-77
2021/07/05 04:00:37;;;;;;;21.02;18.73;;;17.40;99.90;;;;;;4987962;28;20597;-78
2021/07/05 04:03:04;;;;;;;23.08;20.45;;;17.50;99.90;;;;;;4993695;28;20216;-76
2021/07/05 04:05:31;;;;;;;27.80;21.17;;;17.50;99.90;;;;;;4994699;28;20230;-76
2021/07/05 04:08:02;;;;;;;25.73;23.03;;;17.50;99.90;;;;;;4994365;28;20458;-75
2021/07/05 04:10:30;;;;;;;27.13;22.17;;;17.50;99.90;;;;;;5013942;28;20446;-77
2021/07/05 04:12:57;;;;;;;22.80;18.90;;;17.50;99.90;;;;;;4995492;28;20518;-76
2021/07/05 04:15:26;;;;;;;25.17;21.90;;;17.60;99.90;;;;;;4994501;28;20851;-74
2021/07/05 04:17:53;;;;;;;24.80;21.23;;;17.60;99.90;;;;;;4994445;28;20452;-75
2021/07/05 04:20:22;;;;;;;25.85;23.10;;;17.60;99.90;;;;;;4994649;28;20491;-76
2021/07/05 04:22:50;;;;;;;27.03;24.13;;;17.60;99.90;;;;;;4993334;28;20207;-78
2021/07/05 04:25:18;;;;;;;27.87;23.87;;;17.50;99.90;;;;;;4996314;28;20478;-75
2021/07/05 04:27:47;;;;;;;27.33;20.35;;;17.40;99.90;;;;;;5012434;28;20451;-75
2021/07/05 04:30:16;;;;;;;29.50;23.77;;;17.40;99.90;;;;;;4997759;28;20235;-76
2021/07/05 04:32:47;;;;;;;30.80;25.40;;;17.40;99.90;;;;;;4994978;28;20778;-74
2021/07/05 04:35:16;;;;;;;32.17;26.30;;;17.40;99.90;;;;;;4992786;28;20471;-74
2021/07/05 04:37:45;;;;;;;27.05;24.15;;;17.40;99.90;;;;;;4994328;28;20458;-76
2021/07/05 04:40:15;;;;;;;28.05;22.80;;;17.40;99.90;;;;;;5005121;28;20239;-78
2021/07/05 04:42:43;;;;;;;28.88;25.75;;;17.50;99.90;;;;;;5008902;28;20526;-78
2021/07/05 04:45:12;;;;;;;35.05;27.10;;;17.60;99.90;;;;;;4992139;28;20224;-75
2021/07/05 04:47:39;;;;;;;27.67;23.63;;;17.50;99.90;;;;;;4999210;28;20200;-78
2021/07/05 04:50:11;;;;;;;32.87;25.70;;;17.50;99.90;;;;;;4996225;28;20449;-79
2021/07/05 04:52:39;;;;;;;36.40;26.80;;;17.50;99.90;;;;;;5004121;28;20466;-76
2021/07/05 04:55:09;;;;;;;53.87;25.50;;;17.50;99.90;;;;;;4993624;28;20510;-80
2021/07/05 04:57:37;;;;;;;31.52;26.73;;;17.50;99.90;;;;;;5010661;28;20462;-79
2021/07/05 05:00:06;;;;;;;30.70;26.10;;;17.50;99.90;;;;;;5002006;28;20238;-79
2021/07/05 05:02:33;;;;;;;30.67;25.83;;;17.50;99.90;;;;;;5001457;28;20451;-79
2021/07/05 05:05:00;;;;;;;31.53;25.70;;;17.50;99.90;;;;;;5003561;28;20498;-82
2021/07/05 05:07:29;;;;;;;30.20;25.43;;;17.50;99.90;;;;;;5001312;28;20470;-77
2021/07/05 05:10:00;;;;;;;34.87;25.80;;;17.60;99.90;;;;;;5000039;28;20452;-81
2021/07/05 05:12:28;;;;;;;30.27;26.20;;;17.70;99.90;;;;;;4996698;28;20949;-79
2021/07/05 05:14:55;;;;;;;29.40;26.40;;;17.70;99.90;;;;;;4997970;28;20239;-79
2021/07/05 05:17:24;;;;;;;29.17;25.10;;;17.70;99.90;;;;;;4997964;28;20555;-82
2021/07/05 05:19:52;;;;;;;29.77;25.27;;;17.80;99.90;;;;;;5007918;28;20476;-75
2021/07/05 05:22:23;;;;;;;31.73;25.90;;;17.90;99.90;;;;;;5006167;28;20460;-75
2021/07/05 05:24:52;;;;;;;37.63;28.17;;;17.90;99.90;;;;;;5008111;28;20502;-76
2021/07/05 05:27:23;;;;;;;29.07;25.23;;;17.90;99.90;;;;;;5006358;28;20436;-76
2021/07/05 05:29:50;;;;;;;28.53;25.63;;;18.00;99.90;;;;;;4994984;28;20459;-76
2021/07/05 05:32:18;;;;;;;27.90;24.13;;;17.90;99.90;;;;;;5006535;28;20449;-76
2021/07/05 05:34:45;;;;;;;30.03;24.10;;;17.80;99.90;;;;;;5005969;28;20479;-76
2021/07/05 05:37:13;;;;;;;25.63;22.87;;;17.80;99.90;;;;;;5018334;28;20444;-77
2021/07/05 05:39:40;;;;;;;29.67;23.23;;;18.00;99.90;;;;;;5017022;28;20496;-76
2021/07/05 05:42:13;;;;;;;29.47;26.47;;;18.20;99.90;;;;;;5025452;28;20442;-78
2021/07/05 05:44:44;;;;;;;27.67;24.73;;;18.20;99.90;;;;;;5009540;28;20530;-74
2021/07/05 05:47:11;;;;;;;28.17;25.27;;;18.30;99.90;;;;;;4999476;28;20483;-77
2021/07/05 05:49:39;;;;;;;32.47;24.10;;;18.30;99.90;;;;;;4997731;28;20447;-77
2021/07/05 05:52:07;;;;;;;27.37;24.50;;;18.30;99.90;;;;;;4996006;28;20440;-74
2021/07/05 05:54:36;;;;;;;25.60;22.90;;;18.30;99.90;;;;;;5015040;28;20473;-75
2021/07/05 05:57:03;;;;;;;34.00;26.43;;;18.40;99.90;;;;;;5010623;28;20441;-79
2021/07/05 05:59:41;;;;;;;28.13;24.57;;;18.50;99.90;;;;;;4999192;28;20451;-76
2021/07/05 06:02:08;;;;;;;27.60;23.90;;;18.70;99.90;;;;;;4995499;28;20583;-76
2021/07/05 06:04:37;;;;;;;27.27;24.47;;;18.80;99.90;;;;;;5007452;28;20507;-78
2021/07/05 06:07:04;;;;;;;24.30;21.70;;;18.90;99.90;;;;;;4997305;28;20452;-81
2021/07/05 06:09:31;;;;;;;27.83;22.57;;;19.00;99.90;;;;;;4994895;28;20448;-78
2021/07/05 06:12:00;;;;;;;31.63;25.63;;;19.10;99.90;;;;;;5009301;28;20436;-79
2021/07/05 06:14:27;;;;;;;24.90;22.40;;;19.10;99.90;;;;;;5002422;28;20547;-78
2021/07/05 06:16:55;;;;;;;27.93;25.03;;;19.10;99.90;;;;;;5014374;28;20457;-80
2021/07/05 06:19:24;;;;;;;27.03;24.20;;;19.10;99.90;;;;;;5008114;28;20546;-80
2021/07/05 06:21:54;;;;;;;29.20;25.70;;;18.90;99.90;;;;;;4995162;28;20495;-80
2021/07/05 06:24:26;;;;;;;26.67;23.97;;;18.90;99.90;;;;;;4995150;28;20468;-80
2021/07/05 06:26:53;;;;;;;24.50;22.07;;;19.20;99.90;;;;;;5008734;28;20443;-80
2021/07/05 06:29:24;;;;;;;24.00;21.37;;;19.50;99.90;;;;;;5009362;28;20440;-80
2021/07/05 06:31:51;;;;;;;23.47;21.07;;;19.70;99.90;;;;;;4999621;28;20448;-81
2021/07/05 06:34:21;;;;;;;23.47;20.93;;;20.00;99.90;;;;;;4994489;28;20554;-79
2021/07/05 06:36:50;;;;;;;23.40;21.10;;;20.40;99.90;;;;;;4993683;28;20941;-81
2021/07/05 06:39:18;;;;;;;21.60;19.07;;;20.70;99.90;;;;;;5010648;28;20448;-80
2021/07/05 06:41:48;;;;;;;23.63;20.83;;;20.90;99.90;;;;;;5001139;28;20492;-80
2021/07/05 06:44:15;;;;;;;24.10;21.80;;;21.40;99.90;;;;;;5007119;28;20466;-81
2021/07/05 06:46:45;;;;;;;32.87;23.23;;;21.60;99.90;;;;;;5002130;28;20458;-81
2021/07/05 06:49:17;;;;;;;22.63;20.23;;;21.50;99.90;;;;;;5001534;28;20455;-81
2021/07/05 06:51:45;;;;;;;23.17;20.97;;;21.50;99.90;;;;;;4998881;28;20443;-82
2021/07/05 06:54:13;;;;;;;23.67;21.17;;;21.60;99.90;;;;;;4991793;28;20972;-81
2021/07/05 06:56:41;;;;;;;23.07;20.77;;;21.50;99.90;;;;;;4999755;28;20453;-79
2021/07/05 06:59:09;;;;;;;23.93;21.63;;;21.30;99.90;;;;;;4999752;28;20495;-81
2021/07/05 07:01:36;;;;;;;21.90;19.87;;;21.40;99.90;;;;;;4998042;28;20490;-80
2021/07/05 07:04:05;;;;;;;19.90;17.87;;;22.10;99.90;;;;;;4995692;28;20472;-80
2021/07/05 07:06:32;;;;;;;19.10;17.10;;;23.20;99.90;;;;;;4992291;28;20447;-82
2021/07/05 07:09:03;;;;;;;22.63;19.67;;;24.20;99.90;;;;;;4988375;28;20442;-82
2021/07/05 07:11:31;;;;;;;20.53;18.63;;;24.00;99.90;;;;;;4997181;28;20452;-82
2021/07/05 07:13:58;;;;;;;21.70;19.60;;;24.40;99.90;;;;;;4997893;28;21010;-83
2021/07/05 07:16:28;;;;;;;21.70;19.50;;;24.50;99.90;;;;;;4998094;28;20811;-80
2021/07/05 07:19:16;;;;;;;20.87;18.73;;;24.60;99.90;;;;;;5005444;28;20455;-81
2021/07/05 07:21:46;;;;;;;21.00;18.90;;;25.40;99.90;;;;;;4996829;28;20477;-81
2021/07/05 07:24:22;;;;;;;19.83;17.60;;;26.20;98.70;;;;;;5002503;28;20844;-83
2021/07/05 07:26:49;;;;;;;19.60;17.40;;;26.90;96.70;;;;;;5007448;28;20520;-81
2021/07/05 07:29:19;;;;;;;21.30;19.30;;;26.60;96.30;;;;;;5006626;28;20800;-81
2021/07/05 07:31:46;;;;;;;19.17;17.17;;;26.50;97.60;;;;;;4997024;28;20769;-81
2021/07/05 07:34:14;;;;;;;18.40;16.60;;;27.40;96.10;;;;;;4995389;28;20471;-81
2021/07/05 07:36:42;;;;;;;18.13;16.33;;;28.00;94.40;;;;;;4998512;28;20457;-80
2021/07/05 07:39:12;;;;;;;18.20;16.47;;;28.60;93.10;;;;;;4993948;28;20451;-80
2021/07/05 07:41:41;;;;;;;18.40;16.70;;;29.20;91.50;;;;;;4997433;28;20498;-81
2021/07/05 07:44:09;;;;;;;19.30;17.40;;;29.40;90.90;;;;;;5005628;28;20475;-81
2021/07/05 07:46:38;;;;;;;18.37;16.67;;;28.40;90.90;;;;;;4997290;28;20445;-80
2021/07/05 07:49:06;;;;;;;17.00;15.50;;;27.50;92.70;;;;;;4992358;28;20464;-80
2021/07/05 07:51:33;;;;;;;15.57;14.20;;;27.60;92.80;;;;;;4997111;28;20459;-81
2021/07/05 07:54:00;;;;;;;14.67;13.47;;;27.30;93.00;;;;;;4993957;28;20483;-79
2021/07/05 07:56:29;;;;;;;17.00;15.20;;;26.50;94.00;;;;;;5001857;28;20455;-80
2021/07/05 07:58:59;;;;;;;14.80;13.40;;;25.70;95.30;;;;;;5000024;28;20456;-81
2021/07/05 08:01:28;;;;;;;14.57;13.20;;;25.20;97.50;;;;;;4995920;28;20547;-80
2021/07/05 08:03:55;;;;;;;15.10;13.67;;;24.90;98.80;;;;;;4996475;28;20464;-81
2021/07/05 08:06:25;;;;;;;15.60;14.00;;;24.90;99.90;;;;;;4995922;28;20464;-80
2021/07/05 08:08:55;;;;;;;12.80;11.50;;;24.80;98.70;;;;;;5004822;28;20815;-80
2021/07/05 08:11:23;;;;;;;12.97;11.60;;;25.00;99.00;;;;;;5005256;28;20445;-79
2021/07/05 08:13:53;;;;;;;13.30;12.10;;;25.10;98.50;;;;;;4999646;28;20468;-79
2021/07/05 08:16:25;;;;;;;16.43;13.80;;;25.10;98.80;;;;;;4995153;28;20451;-80
2021/07/05 08:18:52;;;;;;;12.83;11.70;;;24.90;99.40;;;;;;4992876;28;20433;-80
2021/07/05 08:21:19;;;;;;;11.70;10.77;;;24.70;99.70;;;;;;4994859;28;20840;-80
2021/07/05 08:23:47;;;;;;;14.33;12.83;;;24.70;99.20;;;;;;4994468;28;20464;-79
2021/07/05 08:26:14;;;;;;;13.60;12.30;;;24.60;99.10;;;;;;4995391;28;20800;-79
2021/07/05 08:28:41;;;;;;;12.57;11.27;;;24.30;99.90;;;;;;5000509;28;20780;-80
2021/07/05 08:31:09;;;;;;;14.00;10.87;;;24.20;99.90;;;;;;5004393;28;20808;-80
2021/07/05 08:33:38;;;;;;;11.03;10.00;;;24.00;99.90;;;;;;4994922;28;20441;-79
2021/07/05 08:36:07;;;;;;;11.37;10.27;;;23.80;99.90;;;;;;4995014;28;20809;-80
2021/07/05 08:38:34;;;;;;;9.20;8.30;;;24.00;99.90;;;;;;4997382;28;20444;-81
2021/07/05 08:41:02;;;;;;;10.30;9.30;;;24.20;99.90;;;;;;4994328;28;20484;-80
2021/07/05 08:43:30;;;;;;;9.53;8.73;;;24.30;99.90;;;;;;4996203;28;20479;-79
2021/07/05 08:46:01;;;;;;;8.63;7.93;;;24.50;99.90;;;;;;5001447;28;20843;-81
2021/07/05 08:48:30;;;;;;;9.03;8.23;;;25.00;99.90;;;;;;5000827;28;20455;-80
2021/07/05 08:51:00;;;;;;;8.37;7.50;;;25.20;99.60;;;;;;5005016;28;20753;-80
2021/07/05 08:53:28;;;;;;;8.60;7.90;;;25.80;99.30;;;;;;4998378;28;20455;-80
2021/07/05 08:55:56;;;;;;;6.93;6.00;;;25.80;97.80;;;;;;4998319;28;20460;-79
2021/07/05 08:58:23;;;;;;;7.60;7.00;;;26.00;97.10;;;;;;4995865;28;20441;-79
2021/07/05 09:00:50;;;;;;;9.37;5.87;;;26.10;96.60;;;;;;5005459;28;20437;-79
2021/07/05 09:03:23;;;;;;;7.00;6.30;;;26.10;95.90;;;;;;5003521;28;20467;-80
2021/07/05 09:06:11;;;;;;;8.93;7.27;;;25.60;96.80;;;;;;5004963;28;20954;-80
2021/07/05 09:08:40;;;;;;;10.10;6.80;;;24.90;98.20;;;;;;4993625;28;20486;-79
2021/07/05 09:11:10;;;;;;;6.60;6.00;;;24.60;98.90;;;;;;5010219;28;20476;-79
2021/07/05 09:13:50;;;;;;;5.63;4.70;;;24.00;99.90;;;;;;4990344;28;20445;-80
2021/07/05 09:16:31;;;;;;;7.37;5.60;;;24.00;99.90;;;;;;4971593;28;20452;-80
2021/07/05 09:18:59;;;;;;;6.43;5.83;;;23.70;99.90;;;;;;4999994;28;20494;-79
2021/07/05 09:21:29;;;;;;;5.50;4.97;;;23.60;99.90;;;;;;4998558;28;20979;-79
2021/07/05 09:24:00;;;;;;;5.07;4.47;;;23.30;99.90;;;;;;4993151;28;20823;-78
2021/07/05 09:26:33;;;;;;;4.83;4.13;;;23.20;99.90;;;;;;4992513;28;20459;-79
2021/07/05 09:29:03;;;;;;;5.07;4.63;;;22.90;99.90;;;;;;4993092;28;20452;-80
2021/07/05 09:31:42;;;;;;;5.00;4.10;;;22.40;99.90;;;;;;4995158;28;20445;-80
2021/07/05 09:34:18;;;;;;;6.20;5.60;;;21.90;99.90;;;;;;4986458;28;20472;-79
2021/07/05 09:36:48;;;;;;;5.70;5.17;;;21.70;99.90;;;;;;4991067;28;20790;-79
2021/07/05 09:39:18;;;;;;;5.67;4.70;;;21.60;99.90;;;;;;5002344;28;20462;-79
2021/07/05 09:41:46;;;;;;;6.20;5.60;;;21.60;99.90;;;;;;4995317;28;20911;-80
2021/07/05 09:44:16;;;;;;;7.50;6.80;;;21.50;99.90;;;;;;4994880;28;20493;-80
2021/07/05 09:46:46;;;;;;;8.80;8.10;;;21.40;99.90;;;;;;4992269;28;20457;-80
2021/07/05 09:49:24;;;;;;;8.77;7.83;;;21.20;99.90;;;;;;4991638;28;20545;-79
2021/07/05 09:52:10;;;;;;;8.77;8.07;;;21.10;99.90;;;;;;4994450;28;20442;-80
2021/07/05 09:54:39;;;;;;;13.73;9.17;;;21.00;99.90;;;;;;4987327;28;20910;-81
2021/07/05 09:57:25;;;;;;;11.27;10.03;;;21.10;99.90;;;;;;5001845;28;20447;-80
2021/07/05 09:59:53;;;;;;;10.03;9.23;;;21.00;99.90;;;;;;5001602;28;20454;-79
2021/07/05 10:02:21;;;;;;;10.13;8.83;;;20.90;99.90;;;;;;4993587;28;20566;-79
2021/07/05 10:04:48;;;;;;;11.43;10.43;;;20.80;99.90;;;;;;4998591;28;20466;-79
2021/07/05 10:07:17;;;;;;;10.67;9.77;;;20.90;99.90;;;;;;4997956;28;20511;-80
2021/07/05 10:09:46;;;;;;;12.40;11.40;;;20.90;99.90;;;;;;4997706;28;20983;-79
2021/07/05 10:12:19;;;;;;;11.50;10.50;;;21.00;99.90;;;;;;5008111;28;20873;-79
2021/07/05 10:15:01;;;;;;;13.43;12.03;;;21.20;99.90;;;;;;4993802;28;20469;-79
2021/07/05 10:17:30;;;;;;;15.30;11.87;;;21.30;99.90;;;;;;4994679;28;20542;-79
2021/07/05 10:19:59;;;;;;;15.20;13.33;;;21.30;99.90;;;;;;5005226;28;20459;-80
2021/07/05 10:22:28;;;;;;;18.10;14.10;;;21.20;99.90;;;;;;5000711;28;20490;-78
2021/07/05 10:24:56;;;;;;;13.33;11.97;;;20.90;99.90;;;;;;4993584;28;20460;-78
2021/07/05 10:27:24;;;;;;;14.67;13.30;;;20.90;99.90;;;;;;4994682;28;20464;-79
2021/07/05 10:29:52;;;;;;;13.93;12.60;;;21.10;99.90;;;;;;4998026;28;20460;-79
2021/07/05 10:32:20;;;;;;;15.37;14.00;;;21.20;99.90;;;;;;4995042;28;20467;-78
2021/07/05 10:34:52;;;;;;;13.80;12.40;;;21.00;99.90;;;;;;5000783;28;20483;-80
2021/07/05 10:37:34;;;;;;;13.43;12.30;;;20.90;99.90;;;;;;4991274;28;20481;-79
2021/07/05 10:40:04;;;;;;;13.17;12.07;;;20.90;99.90;;;;;;4986250;28;20836;-78
2021/07/05 10:42:34;;;;;;;12.93;11.83;;;21.00;99.90;;;;;;5006780;28;20481;-81
2021/07/05 10:45:02;;;;;;;9.10;8.30;;;21.10;99.90;;;;;;4994023;28;21009;-79
2021/07/05 10:47:51;;;;;;;11.73;8.60;;;21.00;99.90;;;;;;4998960;28;20528;-81
2021/07/05 10:50:53;;;;;;;8.87;8.07;;;20.80;99.90;;;;;;4995082;28;20935;-79
2021/07/05 10:53:51;;;;;;;10.10;8.77;;;20.80;99.90;;;;;;4935605;29;20452;-79
2021/07/05 10:56:32;;;;;;;11.10;10.20;;;20.80;99.90;;;;;;4938146;29;20444;-78
2021/07/05 10:59:34;;;;;;;9.80;9.00;;;20.70;99.90;;;;;;4984847;28;20821;-79
2021/07/05 11:02:01;;;;;;;10.20;9.40;;;20.30;99.90;;;;;;4995141;28;20539;-78
2021/07/05 11:04:30;;;;;;;11.27;10.37;;;20.20;99.90;;;;;;5005870;28;20467;-80
2021/07/05 11:06:59;;;;;;;12.50;10.53;;;20.10;99.90;;;;;;5011829;28;20935;-78
2021/07/05 11:09:29;;;;;;;12.40;11.30;;;20.10;99.90;;;;;;5005230;28;20892;-78
2021/07/05 11:11:59;;;;;;;11.60;10.63;;;20.00;99.90;;;;;;5001301;28;20480;-79
2021/07/05 11:14:30;;;;;;;12.73;11.70;;;19.90;99.90;;;;;;4993118;28;20985;-78
2021/07/05 11:17:09;;;;;;;12.57;10.73;;;19.90;99.90;;;;;;5001125;28;20453;-79
2021/07/05 11:19:45;;;;;;;12.87;11.57;;;19.90;99.90;;;;;;4995813;28;20437;-78
2021/07/05 11:22:29;;;;;;;12.63;11.50;;;19.80;99.90;;;;;;5003773;28;20576;-79
2021/07/05 11:25:01;;;;;;;11.97;10.77;;;19.80;99.90;;;;;;4999259;28;20476;-79
2021/07/05 11:27:48;;;;;;;12.73;11.53;;;19.70;99.90;;;;;;4994957;28;20751;-79
2021/07/05 11:30:30;;;;;;;13.07;11.73;;;19.80;99.90;;;;;;4997834;28;20476;-81
2021/07/05 11:33:01;;;;;;;13.47;11.80;;;20.00;99.90;;;;;;4998831;28;20795;-79
2021/07/05 11:35:37;;;;;;;12.37;11.27;;;20.10;99.90;;;;;;5007818;28;20558;-77
2021/07/05 11:38:11;;;;;;;9.67;8.77;;;20.30;99.90;;;;;;4983873;28;20445;-78
2021/07/05 11:40:48;;;;;;;14.20;11.87;;;20.30;99.90;;;;;;4994749;28;20813;-79
2021/07/05 11:43:18;;;;;;;12.10;11.10;;;20.30;99.90;;;;;;4995691;28;20484;-77
2021/07/05 11:45:48;;;;;;;11.10;10.10;;;20.50;99.90;;;;;;4994847;28;20461;-80
2021/07/05 11:48:54;;;;;;;11.20;10.20;;;20.70;99.90;;;;;;4995072;28;20452;-77
2021/07/05 11:51:24;;;;;;;7.93;7.13;;;21.10;99.90;;;;;;4985815;28;21284;-79
2021/07/05 11:53:54;;;;;;;11.53;10.33;;;21.20;99.90;;;;;;5005360;28;20462;-78
2021/07/05 11:56:37;;;;;;;9.10;8.40;;;21.10;99.90;;;;;;4996545;28;20441;-76
2021/07/05 11:59:08;;;;;;;11.27;10.27;;;20.80;99.90;;;;;;5000609;28;20453;-78
2021/07/05 12:01:37;;;;;;;9.50;8.60;;;20.60;99.90;;;;;;5001110;28;20494;-78
2021/07/05 12:04:06;;;;;;;9.87;9.07;;;20.60;99.90;;;;;;4995111;28;20837;-78
2021/07/05 12:06:34;;;;;;;8.80;8.00;;;20.50;99.90;;;;;;4996713;28;20535;-77
2021/07/05 12:09:04;;;;;;;9.47;8.10;;;20.30;99.90;;;;;;5001332;28;20934;-78
2021/07/05 12:11:40;;;;;;;7.90;7.20;;;20.50;99.90;;;;;;5014081;28;20926;-77
2021/07/05 12:14:19;;;;;;;7.77;7.10;;;20.90;99.90;;;;;;4999330;28;20499;-78
2021/07/05 12:16:50;;;;;;;6.90;6.30;;;21.40;99.90;;;;;;4999950;28;20534;-78
2021/07/05 12:19:18;;;;;;;7.80;7.20;;;22.10;99.90;;;;;;4994135;28;20459;-80
2021/07/05 12:21:48;;;;;;;7.20;6.50;;;22.60;99.90;;;;;;4989712;28;20896;-81
2021/07/05 12:24:21;;;;;;;6.33;5.73;;;22.80;99.90;;;;;;5003644;28;21273;-78
2021/07/05 12:26:53;;;;;;;6.00;5.40;;;23.10;99.90;;;;;;5002296;28;20927;-77
2021/07/05 12:29:23;;;;;;;5.27;4.20;;;23.20;99.90;;;;;;5000215;28;20548;-78
2021/07/05 12:31:57;;;;;;;5.10;4.70;;;22.90;99.90;;;;;;4993290;28;20459;-78
2021/07/05 12:34:46;;;;;;;5.03;4.60;;;23.00;99.90;;;;;;4986990;28;20804;-78
2021/07/05 12:37:17;;;;;;;5.23;4.83;;;23.00;99.90;;;;;;4995812;28;20509;-76
2021/07/05 12:39:48;;;;;;;4.70;4.30;;;23.10;99.90;;;;;;4994234;28;20516;-78
2021/07/05 12:42:27;;;;;;;4.50;4.10;;;23.20;99.90;;;;;;4991890;28;20492;-79
2021/07/05 12:44:54;;;;;;;4.47;4.07;;;23.20;99.90;;;;;;4989196;28;20468;-78